createdAt,value
2023-02-03T00:01:44.123Z,101460.88
2023-02-03T00:04:10.720Z,101452.28
2023-02-03T00:06:37.363Z,101466.25
2023-02-03T00:09:04.078Z,101454.16
2023-02-03T00:11:31.209Z,101459.53
2023-02-03T00:13:58.133Z,101458.53
2023-02-03T00:16:24.683Z,101452.16
2023-02-03T00:18:51.344Z,101445.31
2023-02-03T00:21:17.952Z,101442.53
2023-02-03T00:23:44.897Z,101430.19
2023-02-03T00:26:14.242Z,101434.75
2023-02-03T00:28:42.873Z,101425.47
2023-02-03T00:31:21.415Z,101433.31
2023-02-03T00:33:52.998Z,101428.50
2023-02-03T00:36:19.510Z,101430.97
2023-02-03T00:38:46.003Z,101433.59
2023-02-03T00:41:12.545Z,101437.94
2023-02-03T00:43:39.148Z,101437.09
2023-02-03T00:46:06.725Z,101447.13
2023-02-03T00:48:33.237Z,101458.06
2023-02-03T00:50:59.761Z,101454.22
2023-02-03T00:53:26.369Z,101460.53
2023-02-03T00:55:52.988Z,101461.84
2023-02-03T00:58:19.486Z,101472.16
2023-02-03T01:00:46.092Z,101475.53
2023-02-03T01:03:12.639Z,101477.59
2023-02-03T01:05:39.846Z,101495.75
2023-02-03T01:08:06.415Z,101490.47
2023-02-03T01:10:33.266Z,101498.53
2023-02-03T01:12:59.795Z,101497.50
2023-02-03T01:15:27.952Z,101495.06
2023-02-03T01:17:54.569Z,101496.44
2023-02-03T01:20:21.534Z,101496.75
2023-02-03T01:22:48.518Z,101486.94
2023-02-03T01:25:15.210Z,101488.94
2023-02-03T01:27:41.732Z,101486.31
2023-02-03T01:30:08.983Z,101488.53
2023-02-03T01:32:35.517Z,101496.03
2023-02-03T01:35:03.901Z,101514.44
2023-02-03T01:37:30.438Z,101510.56
2023-02-03T01:39:57.683Z,101492.97
2023-02-03T01:42:24.244Z,101491.50
2023-02-03T01:44:52.580Z,101484.88
2023-02-03T01:47:31.086Z,101490.78
2023-02-03T01:50:07.141Z,101484.19
2023-02-03T01:52:34.230Z,101495.16
2023-02-03T01:55:05.408Z,101484.19
2023-02-03T01:57:36.651Z,101485.47
2023-02-03T02:00:05.843Z,101496.69
2023-02-03T02:02:41.976Z,101484.25
2023-02-03T02:05:34.807Z,101476.91
2023-02-03T02:08:03.803Z,101463.31
2023-02-03T02:10:32.095Z,101467.41
2023-02-03T02:13:01.908Z,101463.47
2023-02-03T02:15:56.654Z,101448.63
2023-02-03T02:19:01.825Z,101439.31
2023-02-03T02:21:55.132Z,101435.25
2023-02-03T02:24:40.083Z,101435.56
2023-02-03T02:27:32.209Z,101428.50
2023-02-03T02:30:02.008Z,101419.84
2023-02-03T02:32:29.302Z,101407.91
2023-02-03T02:35:25.593Z,101408.72
2023-02-03T02:38:05.259Z,101416.31
2023-02-03T02:41:07.653Z,101409.16
2023-02-03T02:43:51.656Z,101410.53
2023-02-03T02:46:27.943Z,101393.38
2023-02-03T02:49:13.000Z,101389.97
2023-02-03T02:51:43.780Z,101390.38
2023-02-03T02:54:15.411Z,101380.47
2023-02-03T02:56:44.815Z,101411.94
2023-02-03T02:59:11.554Z,101433.66
2023-02-03T03:01:41.183Z,101431.53
2023-02-03T03:04:12.359Z,101424.91
2023-02-03T03:06:46.554Z,101433.13
2023-02-03T03:09:21.431Z,101444.28
2023-02-03T03:11:57.297Z,101447.81
2023-02-03T03:14:27.327Z,101455.00
2023-02-03T03:17:00.536Z,101445.75
2023-02-03T03:19:34.547Z,101422.34
2023-02-03T03:22:07.379Z,101425.44
2023-02-03T03:24:41.751Z,101431.09
2023-02-03T03:27:15.997Z,101426.66
2023-02-03T03:30:05.161Z,101432.72
2023-02-03T03:32:33.160Z,101417.94
2023-02-03T03:35:01.758Z,101408.59
2023-02-03T03:37:34.158Z,101424.69
2023-02-03T03:40:09.934Z,101415.19
2023-02-03T03:42:48.226Z,101419.34
2023-02-03T03:45:32.985Z,101422.19
2023-02-03T03:48:07.249Z,101417.00
2023-02-03T03:51:12.063Z,101429.34
2023-02-03T03:53:41.670Z,101423.84
2023-02-03T03:56:16.053Z,101427.00
2023-02-03T03:58:47.198Z,101426.28
2023-02-03T04:01:15.980Z,101427.97
2023-02-03T04:03:49.377Z,101427.00
2023-02-03T04:06:16.261Z,101414.41
2023-02-03T04:08:42.912Z,101423.00
2023-02-03T04:11:09.587Z,101416.91
2023-02-03T04:13:36.151Z,101410.03
2023-02-03T04:16:02.914Z,101414.28
2023-02-03T04:18:29.943Z,101407.69
2023-02-03T04:20:56.683Z,101420.31
2023-02-03T04:23:23.405Z,101419.06
2023-02-03T04:25:50.120Z,101424.81
2023-02-03T04:28:16.980Z,101427.16
2023-02-03T04:30:43.723Z,101425.59
2023-02-03T04:33:10.259Z,101423.00
2023-02-03T04:35:37.537Z,101428.75
2023-02-03T04:38:04.033Z,101416.47
2023-02-03T04:40:30.693Z,101409.50
2023-02-03T04:42:57.253Z,101415.25
2023-02-03T04:45:23.928Z,101403.25
2023-02-03T04:47:54.626Z,101387.66
2023-02-03T04:50:21.515Z,101397.28
2023-02-03T04:52:48.151Z,101386.13
2023-02-03T04:55:14.723Z,101387.16
2023-02-03T04:57:41.233Z,101380.00
2023-02-03T05:00:08.277Z,101390.16
2023-02-03T05:02:35.114Z,101382.78
2023-02-03T05:05:01.723Z,101398.31
2023-02-03T05:07:28.206Z,101382.28
2023-02-03T05:09:54.839Z,101385.63
2023-02-03T05:12:21.365Z,101371.38
2023-02-03T05:14:47.905Z,101389.94
2023-02-03T05:17:14.544Z,101385.13
2023-02-03T05:19:41.201Z,101385.31
2023-02-03T05:22:07.687Z,101388.56
2023-02-03T05:24:34.237Z,101400.03
2023-02-03T05:27:00.836Z,101386.59
2023-02-03T05:29:27.512Z,101373.41
2023-02-03T05:31:54.062Z,101359.16
2023-02-03T05:34:20.863Z,101362.38
2023-02-03T05:36:47.451Z,101354.53
2023-02-03T05:39:14.081Z,101377.41
2023-02-03T05:41:52.891Z,101366.78
2023-02-03T05:44:20.491Z,101378.34
2023-02-03T05:46:47.432Z,101364.38
2023-02-03T05:49:14.503Z,101358.28
2023-02-03T05:51:41.557Z,101368.25
2023-02-03T05:54:09.032Z,101360.84
2023-02-03T05:56:35.887Z,101368.63
2023-02-03T05:59:02.664Z,101362.59
2023-02-03T06:01:29.481Z,101383.00
2023-02-03T06:03:56.348Z,101379.44
2023-02-03T06:06:23.043Z,101387.53
2023-02-03T06:08:52.182Z,101393.09
2023-02-03T06:11:18.666Z,101385.19
2023-02-03T06:13:45.245Z,101370.47
2023-02-03T06:16:11.847Z,101361.63
2023-02-03T06:18:38.461Z,101364.91
2023-02-03T06:21:05.279Z,101363.16
2023-02-03T06:23:31.893Z,101371.47
2023-02-03T06:26:00.245Z,101382.53
2023-02-03T06:28:27.039Z,101374.19
2023-02-03T06:30:53.678Z,101382.22
2023-02-03T06:33:20.418Z,101377.94
2023-02-03T06:35:46.947Z,101358.25
2023-02-03T06:38:13.568Z,101372.25
2023-02-03T06:40:40.083Z,101372.97
2023-02-03T06:43:06.765Z,101360.66
2023-02-03T06:45:34.412Z,101363.28
2023-02-03T06:48:01.052Z,101369.38
2023-02-03T06:50:28.032Z,101379.06
2023-02-03T06:52:54.774Z,101383.31
2023-02-03T06:55:21.278Z,101382.94
2023-02-03T06:57:48.705Z,101389.53
2023-02-03T07:00:19.014Z,101388.63
2023-02-03T07:02:46.743Z,101401.88
2023-02-03T07:05:13.360Z,101399.84
2023-02-03T07:07:40.231Z,101396.53
2023-02-03T07:10:07.341Z,101398.16
2023-02-03T07:12:34.044Z,101407.31
2023-02-03T07:15:00.585Z,101408.25
2023-02-03T07:17:27.336Z,101397.97
2023-02-03T07:19:53.915Z,101400.19
2023-02-03T07:22:20.442Z,101387.41
2023-02-03T07:24:47.260Z,101399.72
2023-02-03T07:27:13.923Z,101388.56
2023-02-03T07:29:40.432Z,101391.16
2023-02-03T07:32:07.325Z,101393.50
2023-02-03T07:34:34.099Z,101390.56
2023-02-03T07:37:00.807Z,101392.28
2023-02-03T07:39:27.482Z,101400.03
2023-02-03T07:41:54.109Z,101409.34
2023-02-03T07:44:22.473Z,101400.06
2023-02-03T07:46:49.157Z,101411.72
2023-02-03T07:49:16.411Z,101399.97
2023-02-03T07:56:20.800Z,101399.97
2023-02-03T07:58:47.415Z,101395.84
2023-02-03T08:01:16.509Z,101393.88
2023-02-03T08:03:43.668Z,101392.78
2023-02-03T08:06:10.634Z,101398.81
2023-02-03T08:08:37.267Z,101406.91
2023-02-03T08:11:04.001Z,101402.06
2023-02-03T08:13:30.642Z,101400.81
2023-02-03T08:15:57.409Z,101401.59
2023-02-03T08:18:24.277Z,101413.75
2023-02-03T08:20:50.922Z,101416.78
2023-02-03T08:23:17.841Z,101421.63
2023-02-03T08:25:44.427Z,101411.34
2023-02-03T08:28:11.118Z,101404.28
2023-02-03T08:30:38.311Z,101416.00
2023-02-03T08:33:05.043Z,101409.69
2023-02-03T08:35:32.019Z,101415.72
2023-02-03T08:37:58.605Z,101400.34
2023-02-03T08:40:25.141Z,101402.84
2023-02-03T08:42:51.830Z,101415.41
2023-02-03T08:45:18.601Z,101414.28
2023-02-03T08:47:45.274Z,101405.25
2023-02-03T08:50:12.054Z,101404.38
2023-02-03T08:52:38.680Z,101414.75
2023-02-03T08:55:05.946Z,101407.94
2023-02-03T08:57:34.430Z,101416.22
2023-02-03T09:00:01.070Z,101410.75
2023-02-03T09:02:27.774Z,101408.19
2023-02-03T09:04:54.548Z,101409.38
2023-02-03T09:07:21.745Z,101421.63
2023-02-03T09:09:48.402Z,101415.47
2023-02-03T09:12:15.641Z,101436.41
2023-02-03T09:14:42.298Z,101428.44
2023-02-03T09:17:09.742Z,101426.00
2023-02-03T09:19:36.804Z,101427.75
2023-02-03T09:22:04.585Z,101439.41
2023-02-03T09:24:31.227Z,101428.13
2023-02-03T09:26:57.873Z,101440.03
2023-02-03T09:29:24.462Z,101446.03
2023-02-03T09:31:54.639Z,101450.97
2023-02-03T09:34:21.848Z,101439.94
2023-02-03T09:36:48.733Z,101443.16
2023-02-03T09:39:15.801Z,101449.63
2023-02-03T09:42:12.447Z,101438.84
2023-02-03T09:44:54.004Z,101431.06
2023-02-03T09:47:36.612Z,101420.72
2023-02-03T09:50:11.213Z,101418.38
2023-02-03T09:57:25.066Z,101414.75
2023-02-03T09:59:54.485Z,101424.34
2023-02-03T10:02:55.469Z,101444.22
2023-02-03T10:10:38.877Z,101457.78
2023-02-03T10:13:18.127Z,101440.38
2023-02-03T10:15:59.424Z,101452.78
2023-02-03T10:18:35.024Z,101451.38
2023-02-03T10:21:11.580Z,101449.44
2023-02-03T10:23:41.661Z,101445.94
2023-02-03T10:26:16.687Z,101463.25
2023-02-03T10:29:07.910Z,101463.19
2023-02-03T10:31:36.540Z,101455.09
2023-02-03T10:34:12.664Z,101451.81
2023-02-03T10:36:45.300Z,101464.91
2023-02-03T10:39:22.826Z,101464.28
2023-02-03T10:41:49.554Z,101465.19
2023-02-03T10:44:16.316Z,101460.72
2023-02-03T10:46:44.318Z,101460.19
2023-02-03T10:49:13.642Z,101461.34
2023-02-03T10:51:50.235Z,101467.09
2023-02-03T10:54:31.799Z,101459.19
2023-02-03T10:57:07.307Z,101456.63
2023-02-03T10:59:36.868Z,101440.69
2023-02-03T11:02:21.389Z,101444.66
2023-02-03T11:04:48.197Z,101454.25
2023-02-03T11:07:26.692Z,101454.03
2023-02-03T11:09:53.340Z,101458.28
2023-02-03T11:12:20.127Z,101463.06
2023-02-03T11:14:52.124Z,101460.31
2023-02-03T11:17:18.760Z,101461.31
2023-02-03T11:19:48.004Z,101467.97
2023-02-03T11:22:29.060Z,101453.41
2023-02-03T11:24:57.474Z,101455.34
2023-02-03T11:27:25.426Z,101479.09
2023-02-03T11:30:14.635Z,101476.03
2023-02-03T11:32:43.131Z,101480.69
2023-02-03T11:35:27.179Z,101485.84
2023-02-03T11:37:56.544Z,101477.28
2023-02-03T11:40:34.049Z,101480.78
2023-02-03T11:43:25.319Z,101469.56
2023-02-03T11:45:54.510Z,101473.97
2023-02-03T11:48:36.142Z,101470.41
2023-02-03T11:51:02.825Z,101471.72
2023-02-03T11:54:00.714Z,101470.69
2023-02-03T11:56:41.152Z,101463.88
2023-02-03T11:59:43.160Z,101469.22
2023-02-03T12:02:48.620Z,101476.16
2023-02-03T12:05:15.369Z,101468.97
2023-02-03T12:07:50.860Z,101480.38
2023-02-03T12:10:37.869Z,101484.97
2023-02-03T12:13:33.952Z,101490.78
2023-02-03T12:16:20.249Z,101499.47
2023-02-03T12:19:14.472Z,101493.44
2023-02-03T12:21:47.164Z,101490.72
2023-02-03T12:24:36.540Z,101505.91
2023-02-03T12:27:12.042Z,101492.81
2023-02-03T12:29:43.895Z,101502.81
2023-02-03T12:32:34.740Z,101482.91
2023-02-03T12:35:17.336Z,101483.31
2023-02-03T12:38:01.704Z,101473.25
2023-02-03T12:40:52.091Z,101474.81
2023-02-03T12:43:25.801Z,101478.94
2023-02-03T12:46:10.217Z,101495.84
2023-02-03T12:48:59.011Z,101497.88
2023-02-03T12:51:38.713Z,101485.66
2023-02-03T12:54:26.663Z,101485.66
2023-02-03T12:56:56.005Z,101483.59
2023-02-03T12:59:25.400Z,101490.22
2023-02-03T13:02:03.920Z,101482.41
2023-02-03T13:05:13.688Z,101485.31
2023-02-03T13:07:48.185Z,101484.03
2023-02-03T13:10:32.236Z,101482.72
2023-02-03T13:12:59.932Z,101494.47
2023-02-03T13:15:32.718Z,101517.44
2023-02-03T13:18:21.937Z,101520.75
2023-02-03T13:20:48.584Z,101508.59
2023-02-03T13:23:15.955Z,101503.56
2023-02-03T13:26:01.781Z,101519.03
2023-02-03T13:28:47.479Z,101503.19
2023-02-03T13:31:46.654Z,101497.63
2023-02-03T13:39:07.568Z,101520.16
2023-02-03T13:41:55.832Z,101525.28
2023-02-03T13:44:30.410Z,101529.66
2023-02-03T13:46:59.118Z,101520.56
2023-02-03T13:49:30.041Z,101525.16
2023-02-03T13:51:56.925Z,101524.81
2023-02-03T13:54:30.216Z,101532.47
2023-02-03T13:57:19.607Z,101534.63
2023-02-03T13:59:46.529Z,101528.28
2023-02-03T14:02:19.240Z,101518.25
2023-02-03T14:04:46.004Z,101526.19
2023-02-03T14:07:34.662Z,101530.47
2023-02-03T14:10:13.904Z,101538.34
2023-02-03T14:12:49.817Z,101538.38
2023-02-03T14:15:31.139Z,101534.66
2023-02-03T14:18:25.501Z,101543.56
2023-02-03T14:20:56.596Z,101554.06
2023-02-03T14:23:27.005Z,101577.88
2023-02-03T14:26:00.683Z,101580.47
2023-02-03T14:28:43.679Z,101582.84
2023-02-03T14:31:22.332Z,101594.84
2023-02-03T14:33:49.002Z,101592.34
2023-02-03T14:36:27.844Z,101593.34
2023-02-03T14:39:01.463Z,101600.28
2023-02-03T14:41:54.224Z,101595.69
2023-02-03T14:44:43.912Z,101600.13
2023-02-03T14:47:14.769Z,101601.22
2023-02-03T14:49:55.403Z,101604.41
2023-02-03T14:52:48.163Z,101606.91
2023-02-03T14:55:35.939Z,101617.44
2023-02-03T14:58:07.393Z,101608.69
2023-02-03T15:00:35.528Z,101608.22
2023-02-03T15:03:11.173Z,101610.81
2023-02-03T15:05:44.805Z,101605.19
2023-02-03T15:08:46.896Z,101604.59
2023-02-03T15:11:23.987Z,101610.63
2023-02-03T15:13:51.085Z,101614.44
2023-02-03T15:16:21.057Z,101612.75
2023-02-03T15:18:55.671Z,101614.47
2023-02-03T15:21:23.061Z,101614.00
2023-02-03T15:23:50.904Z,101610.19
2023-02-03T15:26:24.161Z,101622.78
2023-02-03T15:28:55.153Z,101637.19
2023-02-03T15:31:39.125Z,101643.16
2023-02-03T15:34:27.029Z,101649.78
2023-02-03T15:36:57.285Z,101648.28
2023-02-03T15:39:51.860Z,101638.41
2023-02-03T15:42:28.781Z,101643.69
2023-02-03T15:45:03.094Z,101648.47
2023-02-03T15:47:34.321Z,101657.91
2023-02-03T15:50:34.040Z,101654.03
2023-02-03T15:53:07.617Z,101648.91
2023-02-03T15:55:42.292Z,101664.69
2023-02-03T15:58:18.988Z,101665.97
2023-02-03T16:05:28.330Z,101664.44
2023-02-03T16:07:55.383Z,101666.66
2023-02-03T16:14:36.599Z,101675.00
2023-02-03T16:17:06.155Z,101679.03
2023-02-03T16:19:38.010Z,101680.16
2023-02-03T16:22:04.662Z,101688.50
2023-02-03T16:24:45.984Z,101687.25
2023-02-03T16:27:24.935Z,101695.38
2023-02-03T16:30:10.867Z,101699.66
2023-02-03T16:32:56.036Z,101714.22
2023-02-03T16:35:41.928Z,101722.53
2023-02-03T16:38:36.414Z,101732.59
2023-02-03T16:41:31.155Z,101727.03
2023-02-03T16:44:16.436Z,101731.75
2023-02-03T16:47:02.693Z,101735.53
2023-02-03T16:49:47.891Z,101733.66
2023-02-03T16:52:14.520Z,101734.53
2023-02-03T16:54:41.161Z,101737.31
2023-02-03T16:57:07.722Z,101738.59
2023-02-03T16:59:34.748Z,101740.72
2023-02-03T17:02:01.507Z,101736.47
2023-02-03T17:04:28.523Z,101736.22
2023-02-03T17:06:55.218Z,101747.78
2023-02-03T17:09:24.890Z,101753.34
2023-02-03T17:11:51.558Z,101748.22
2023-02-03T17:14:18.272Z,101748.63
2023-02-03T17:16:45.157Z,101762.56
2023-02-03T17:19:12.597Z,101756.16
2023-02-03T17:21:39.357Z,101772.19
2023-02-03T17:24:06.464Z,101771.97
2023-02-03T17:26:34.170Z,101777.94
2023-02-03T17:29:03.151Z,101776.91
2023-02-03T17:31:30.827Z,101792.03
2023-02-03T17:33:57.825Z,101789.81
2023-02-03T17:36:25.049Z,101802.31
2023-02-03T17:55:23.161Z,101818.94
2023-02-03T17:57:49.943Z,101821.66
2023-02-03T18:00:16.935Z,101812.94
2023-02-03T18:02:43.966Z,101828.63
2023-02-03T18:05:11.079Z,101830.13
2023-02-03T18:07:37.792Z,101839.97
2023-02-03T18:10:04.797Z,101838.66
2023-02-03T18:12:31.296Z,101845.94
2023-02-03T18:14:58.033Z,101840.81
2023-02-03T18:17:24.568Z,101844.63
2023-02-03T18:19:55.762Z,101850.19
2023-02-03T18:22:24.458Z,101849.84
2023-02-03T18:24:52.091Z,101854.41
2023-02-03T18:27:18.921Z,101870.72
2023-02-03T18:29:46.821Z,101856.53
2023-02-03T18:32:15.163Z,101857.31
2023-02-03T18:34:42.016Z,101863.91
2023-02-03T18:37:08.801Z,101867.69
2023-02-03T18:39:35.428Z,101859.78
2023-02-03T18:42:02.381Z,101866.47
2023-02-03T18:44:29.076Z,101859.34
2023-02-03T18:46:55.817Z,101857.22
2023-02-03T18:49:22.696Z,101872.84
2023-02-03T18:51:49.390Z,101870.50
2023-02-03T18:54:16.053Z,101874.38
2023-02-03T18:56:42.639Z,101877.09
2023-02-03T18:59:10.691Z,101877.63
2023-02-03T19:01:39.004Z,101878.34
2023-02-03T19:04:05.886Z,101876.56
2023-02-03T19:06:34.554Z,101871.72
2023-02-03T19:09:02.241Z,101881.78
2023-02-03T19:11:28.934Z,101889.28
2023-02-03T19:13:55.705Z,101895.63
2023-02-03T19:16:22.420Z,101894.69
2023-02-03T19:18:49.008Z,101897.97
2023-02-03T19:21:15.770Z,101897.75
2023-02-03T19:23:42.833Z,101904.16
2023-02-03T19:26:10.108Z,101906.06
2023-02-03T19:28:37.030Z,101916.13
2023-02-03T19:31:10.467Z,101921.91
2023-02-03T19:33:37.761Z,101924.00
2023-02-03T19:36:08.978Z,101916.78
2023-02-03T19:38:36.102Z,101919.34
2023-02-03T19:41:03.039Z,101930.59
2023-02-03T19:43:30.934Z,101933.63
2023-02-03T19:45:57.988Z,101935.84
2023-02-03T19:48:24.687Z,101942.97
2023-02-03T19:50:51.285Z,101953.66
2023-02-03T19:53:18.697Z,101951.88
2023-02-03T19:55:46.212Z,101949.50
2023-02-03T19:58:13.959Z,101935.50
2023-02-03T20:00:41.669Z,101944.13
2023-02-03T20:03:08.627Z,101944.53
2023-02-03T20:05:36.230Z,101948.97
2023-02-03T20:08:04.113Z,101950.13
2023-02-03T20:10:32.366Z,101944.47
2023-02-03T20:12:59.514Z,101950.38
2023-02-03T20:15:26.833Z,101969.53
2023-02-03T20:17:53.994Z,101959.25
2023-02-03T20:20:21.014Z,101954.88
2023-02-03T20:22:48.311Z,101950.03
2023-02-03T20:25:15.433Z,101958.47
2023-02-03T20:27:42.708Z,101961.00
2023-02-03T20:30:10.019Z,101961.81
2023-02-03T20:32:37.080Z,101963.78
2023-02-03T20:35:04.969Z,101975.63
2023-02-03T20:37:32.430Z,101973.06
2023-02-03T20:39:59.007Z,101984.13
2023-02-03T20:42:25.682Z,101987.97
2023-02-03T20:44:52.201Z,101987.97
2023-02-03T20:47:19.089Z,101999.66
2023-02-03T20:49:45.949Z,102003.31
2023-02-03T20:52:14.909Z,102009.78
2023-02-03T20:54:41.833Z,102007.97
2023-02-03T20:57:13.320Z,102010.78
2023-02-03T20:59:40.032Z,102020.25
2023-02-03T21:02:33.633Z,102016.22
2023-02-03T21:05:06.317Z,102019.91
2023-02-03T21:07:33.151Z,102020.25
2023-02-03T21:10:00.335Z,102016.44
2023-02-03T21:12:28.447Z,102020.47
2023-02-03T21:14:55.348Z,102018.63
2023-02-03T21:17:26.921Z,102021.84
2023-02-03T21:19:54.909Z,102008.41
2023-02-03T21:22:23.344Z,102016.16
2023-02-03T21:24:57.438Z,102013.25
2023-02-03T21:27:31.494Z,102014.03
2023-02-03T21:30:00.395Z,102025.69
2023-02-03T21:32:40.716Z,102027.88
2023-02-03T21:35:29.634Z,102035.22
2023-02-03T21:38:02.386Z,102045.16
2023-02-03T21:40:33.804Z,102042.53
2023-02-03T21:43:02.123Z,102042.53
2023-02-03T21:45:36.622Z,102051.81
2023-02-03T21:48:24.169Z,102046.78
2023-02-03T21:50:51.757Z,102049.94
2023-02-03T21:53:35.600Z,102048.31
2023-02-03T21:56:15.952Z,102062.72
2023-02-03T21:58:44.121Z,102061.78
2023-02-03T22:01:16.314Z,102059.34
2023-02-03T22:03:47.954Z,102046.63
2023-02-03T22:06:49.536Z,102040.72
2023-02-03T22:09:18.189Z,102054.06
2023-02-03T22:11:45.358Z,102054.38
2023-02-03T22:14:13.583Z,102054.72
2023-02-03T22:16:40.372Z,102061.84
2023-02-03T22:19:06.997Z,102065.63
2023-02-03T22:21:33.898Z,102067.09
2023-02-03T22:24:01.374Z,102087.22
2023-02-03T22:26:28.204Z,102084.47
2023-02-03T22:28:54.820Z,102097.66
2023-02-03T22:31:21.708Z,102097.22
2023-02-03T22:33:48.724Z,102087.41
2023-02-03T22:36:15.802Z,102098.47
2023-02-03T22:38:43.289Z,102103.56
2023-02-03T22:41:13.030Z,102110.84
2023-02-03T22:43:40.087Z,102110.44
2023-02-03T22:46:07.074Z,102116.56
2023-02-03T22:48:34.419Z,102119.03
2023-02-03T22:51:01.358Z,102127.63
2023-02-03T22:53:29.059Z,102132.50
2023-02-03T22:55:55.760Z,102129.38
2023-02-03T22:58:22.513Z,102127.19
2023-02-03T23:00:49.142Z,102123.63
2023-02-03T23:03:15.835Z,102138.94
2023-02-03T23:05:43.482Z,102132.16
2023-02-03T23:08:10.404Z,102138.19
2023-02-03T23:10:37.084Z,102133.81
2023-02-03T23:13:04.055Z,102119.31
2023-02-03T23:15:30.707Z,102121.63
2023-02-03T23:17:57.498Z,102128.09
2023-02-03T23:20:24.110Z,102133.66
2023-02-03T23:22:50.894Z,102136.25
2023-02-03T23:25:17.546Z,102134.53
2023-02-03T23:27:44.259Z,102142.22
2023-02-03T23:30:11.938Z,102143.97
2023-02-03T23:32:38.591Z,102143.91
2023-02-03T23:35:24.151Z,102142.72
2023-02-03T23:37:50.906Z,102151.84
2023-02-03T23:40:17.708Z,102152.91
2023-02-03T23:42:44.326Z,102150.75
2023-02-03T23:45:12.234Z,102147.16
2023-02-03T23:47:40.688Z,102152.66
2023-02-03T23:50:08.842Z,102155.69
2023-02-03T23:52:36.793Z,102146.81
2023-02-03T23:55:10.177Z,102151.94
2023-02-03T23:57:36.914Z,102163.31
